Shin-oh Maru — JG5594 — position and weather

sailwx.info

Track history (hours):
 
Tides and Currents Weather Stations Pressure Air Temp Water Temp Dewpoint Dewpoint Depression Visibility Wind Speed Wind Dir Waves Ship Positions

Shin-oh Maru

Last reported at 2018-Jan-12 15:00 UTC. Time now 2018-Jan-18 19:48 UTC.
Position N 35°23' E 139°42'.

Length 161 m; draft 6.7 m.

Type: Cargo ship. MMSI: 431100859.

Date/timePositionNaut miles runAvg speedWind from/ knotsBaromVisibWave heightAir tempDewpointWater temp
2018-Jan-12 15:00N 35°23' E 139°42'918.7
2018-Jan-12 14:30N 35°29' E 139°50'715.0
2018-Jan-12 14:01N 35°36' E 139°47'2 3.0
2018-Jan-12 13:27N 35°38' E 139°46'0 0.0
2018-Jan-12 12:54N 35°38' E 139°46'0 0.0
2018-Jan-12 11:42N 35°38' E 139°46'0 0.0
2018-Jan-12 11:27N 35°38' E 139°46'0 0.0
2018-Jan-12 10:51N 35°38' E 139°46'0 0.0
2018-Jan-12 10:12N 35°38' E 139°46'0 0.0
2018-Jan-12 09:51N 35°38' E 139°46'0 0.0
2018-Jan-12 09:21N 35°38' E 139°46'0 0.0
2018-Jan-12 09:00N 35°38' E 139°46'3 6.3
2018-Jan-12 08:30N 35°35' E 139°48'612.7
2018-Jan-12 08:01N 35°30' E 139°53'917.2
2018-Jan-12 07:30N 35°23' E 139°46'612.2
2018-Jan-12 07:01N 35°17' E 139°45'713.6
2018-Jan-12 06:30N 35°11' E 139°47'1019.1
2018-Jan-12 06:00N 35°01' E 139°44'815.6
2018-Jan-12 05:30N 34°54' E 139°46'1416.1
2018-Jan-12 04:38N 34°55' E 140°03'41711.9
2018-Jan-10 17:31N 41°45' E 141°44'40718.0
2018-Jan-09 18:53N 35°03' E 140°22'820.0
2018-Jan-09 18:28N 34°59' E 140°13'919.2
2018-Jan-09 18:00N 34°54' E 140°04'1018.7
2018-Jan-09 17:30N 34°51' E 139°53'918.1
2018-Jan-09 17:00N 34°56' E 139°44'817.0
2018-Jan-09 16:30N 35°04' E 139°43'918.1
2018-Jan-09 16:00N 35°13' E 139°46'612.6
2018-Jan-09 15:30N 35°19' E 139°44'714.9
2018-Jan-09 15:00N 35°26' E 139°46'816.2
2018-Jan-09 14:31N 35°33' E 139°51'612.6
2018-Jan-09 14:01N 35°38' E 139°46'0 0.1
2018-Jan-09 13:28N 35°38' E 139°46'0 0.0
2018-Jan-09 12:58N 35°38' E 139°46'0 0.0
2018-Jan-09 11:04N 35°38' E 139°46'0 0.0
2018-Jan-09 10:52N 35°38' E 139°46'0 0.0
2018-Jan-09 10:22N 35°38' E 139°46'0 0.0
2018-Jan-09 08:58N 35°38' E 139°46'0 0.0
2018-Jan-09 04:46N 35°38' E 139°46'0 0.0
2018-Jan-09 04:28N 35°38' E 139°46'0 0.0
2018-Jan-09 03:58N 35°38' E 139°46'0 0.0
2018-Jan-09 03:10N 35°38' E 139°46'0 0.0
2018-Jan-09 03:00N 35°38' E 139°46'4 8.7
2018-Jan-09 02:30N 35°34' E 139°49'5 9.2
2018-Jan-09 02:00N 35°33' E 139°54'0 0.3
2018-Jan-09 01:25N 35°33' E 139°54'0 0.0
2018-Jan-09 00:58N 35°33' E 139°54'0 0.2
2018-Jan-09 00:22N 35°33' E 139°54'0 0.2
2018-Jan-08 23:46N 35°33' E 139°54'0 0.0
2018-Jan-08 23:28N 35°33' E 139°54'0 0.1
2018-Jan-08 22:52N 35°33' E 139°54'0 0.0
2018-Jan-08 22:28N 35°33' E 139°54'0 0.0
2018-Jan-08 21:58N 35°33' E 139°54'0 0.0
2018-Jan-08 21:28N 35°33' E 139°54'0 0.1
2018-Jan-08 20:55N 35°33' E 139°54'0 0.0
2018-Jan-08 20:25N 35°33' E 139°54'0 0.0
2018-Jan-08 19:55N 35°33' E 139°54'0 0.0
2018-Jan-08 19:25N 35°33' E 139°54'0 0.0
2018-Jan-08 18:55N 35°33' E 139°54'0 0.0
2018-Jan-08 18:28N 35°33' E 139°54'0 0.0
2018-Jan-08 17:49N 35°33' E 139°54'0 0.0
2018-Jan-08 17:25N 35°33' E 139°54'0 0.0
2018-Jan-08 16:55N 35°33' E 139°54'0 0.0
2018-Jan-08 16:25N 35°33' E 139°54'0 0.1
2018-Jan-08 15:58N 35°33' E 139°54'0 0.0
2018-Jan-08 15:22N 35°33' E 139°54'0 0.1
2018-Jan-08 14:58N 35°33' E 139°54'0 0.0
2018-Jan-08 14:25N 35°33' E 139°54'0 0.1
2018-Jan-08 13:58N 35°33' E 139°54'0 0.0
2018-Jan-08 13:13N 35°33' E 139°54'0 0.0
2018-Jan-08 12:55N 35°33' E 139°54'0 0.0
2018-Jan-08 12:25N 35°33' E 139°54'0 0.1
2018-Jan-08 11:55N 35°33' E 139°54'0 0.0
2018-Jan-08 11:25N 35°33' E 139°54'0 0.1
2018-Jan-08 10:52N 35°33' E 139°54'0 0.0
2018-Jan-08 10:25N 35°33' E 139°54'0 0.0
2018-Jan-08 09:55N 35°33' E 139°54'0 0.0
2018-Jan-08 09:25N 35°33' E 139°54'0 0.0
2018-Jan-08 08:49N 35°33' E 139°54'0 0.0
2018-Jan-08 08:25N 35°33' E 139°54'0 0.0
2018-Jan-08 07:58N 35°33' E 139°54'0 0.0
2018-Jan-08 07:19N 35°33' E 139°54'0 0.0
2018-Jan-08 06:55N 35°33' E 139°54'0 0.0
2018-Jan-08 06:25N 35°33' E 139°54'0 0.0
2018-Jan-08 05:58N 35°33' E 139°54'0 0.1
2018-Jan-08 05:28N 35°33' E 139°54'0 0.1
2018-Jan-08 04:55N 35°33' E 139°54'0 0.0
2018-Jan-08 04:01N 35°33' E 139°54'0 0.0
2018-Jan-08 03:58N 35°33' E 139°54'0 0.0
2018-Jan-08 03:28N 35°33' E 139°54'0 0.0
2018-Jan-08 02:55N 35°33' E 139°54'0 0.0
2018-Jan-08 02:28N 35°33' E 139°54'0 0.0
2018-Jan-08 01:55N 35°33' E 139°54'0 0.1
2018-Jan-08 01:25N 35°33' E 139°54'0 0.0
2018-Jan-08 00:55N 35°33' E 139°54'0 0.1
2018-Jan-08 00:25N 35°33' E 139°54'0 0.0
2018-Jan-07 23:46N 35°33' E 139°54'0 0.0
2018-Jan-07 23:22N 35°33' E 139°54'0 0.0
2018-Jan-07 22:58N 35°33' E 139°54'0 0.1
2018-Jan-07 22:25N 35°33' E 139°54'0 0.0
2018-Jan-07 21:58N 35°33' E 139°54'0 0.1
2018-Jan-07 21:22N 35°33' E 139°54'0 0.0
2018-Jan-07 20:58N 35°33' E 139°54'0 0.0
2018-Jan-07 20:28N 35°33' E 139°54'0 0.0
2018-Jan-07 19:55N 35°33' E 139°54'0 0.1
2018-Jan-07 19:22N 35°33' E 139°54'0 0.0
2018-Jan-07 18:43N 35°33' E 139°54'0 0.2
2018-Jan-07 18:28N 35°33' E 139°54'0 0.1
2018-Jan-07 17:55N 35°33' E 139°54'0 0.1
2018-Jan-07 17:28N 35°33' E 139°54'0 0.0
2018-Jan-07 16:58N 35°33' E 139°54'0 0.0
2018-Jan-07 16:19N 35°33' E 139°54'0 0.0
2018-Jan-07 15:58N 35°33' E 139°54'0 0.0
2018-Jan-07 15:25N 35°33' E 139°54'0 0.0
2018-Jan-07 14:55N 35°33' E 139°54'0 0.2
2018-Jan-07 14:28N 35°33' E 139°54'0 0.0
2018-Jan-07 13:46N 35°33' E 139°54'0 0.0
2018-Jan-07 13:19N 35°33' E 139°54'0 0.0
2018-Jan-07 12:58N 35°33' E 139°54'0 0.0
2018-Jan-07 12:25N 35°33' E 139°54'0 0.0
2018-Jan-07 11:55N 35°33' E 139°54'0 0.0
2018-Jan-07 11:25N 35°33' E 139°54'0 0.0
2018-Jan-07 10:55N 35°33' E 139°54'0 0.0
2018-Jan-07 10:28N 35°33' E 139°54'0 0.0
2018-Jan-07 09:58N 35°33' E 139°54'0 0.0
2018-Jan-07 09:25N 35°33' E 139°54'0 0.0
2018-Jan-07 08:59N 35°33' E 139°54'0 0.1
2018-Jan-07 08:30N 35°33' E 139°54'3 5.7
2018-Jan-07 08:00N 35°31' E 139°53'917.6
2018-Jan-07 07:30N 35°24' E 139°46'612.7
2018-Jan-07 07:00N 35°18' E 139°45'713.4
2018-Jan-07 06:30N 35°11' E 139°47'1019.4
2018-Jan-07 06:01N 35°02' E 139°44'917.1
2018-Jan-07 05:30N 34°53' E 139°46'1116.5
2018-Jan-07 04:50N 34°53' E 139°60'717.9
2018-Jan-07 04:27N 34°57' E 140°07'  
2018-Jan-04 15:40N 35°03' E 140°23'817.0
2018-Jan-04 15:10N 34°59' E 140°14'317.1
2018-Jan-04 14:59N 34°57' E 140°10'1016.9
2018-Jan-04 14:24N 34°53' E 139°60'716.2
2018-Jan-04 13:57N 34°51' E 139°51'817.5
2018-Jan-04 13:30N 34°56' E 139°43'917.5
2018-Jan-04 13:00N 35°04' E 139°43'918.2
2018-Jan-04 12:30N 35°13' E 139°46'612.8
2018-Jan-04 12:00N 35°19' E 139°43'815.3
2018-Jan-04 11:30N 35°26' E 139°46'714.9
2018-Jan-04 11:00N 35°31' E 139°53'0 0.5
2018-Jan-04 10:30N 35°31' E 139°53'0 0.0
2018-Jan-04 10:00N 35°31' E 139°53'0 0.0
2018-Jan-04 09:30N 35°31' E 139°53'0 0.0
2018-Jan-04 08:57N 35°31' E 139°53'0 0.1
2018-Jan-04 08:30N 35°31' E 139°53'0 0.1
2018-Jan-04 07:57N 35°31' E 139°53'0 0.1
2018-Jan-04 07:27N 35°31' E 139°53'0 0.1
2018-Jan-04 07:00N 35°31' E 139°53'2 3.2
2018-Jan-04 06:30N 35°32' E 139°51'613.0
2018-Jan-04 06:00N 35°37' E 139°46'1 0.1
2018-Jan-04 01:16N 35°38' E 139°46'0 0.0
2018-Jan-04 00:58N 35°38' E 139°46'0 0.0
2018-Jan-03 22:46N 35°38' E 139°46'0 0.0
2018-Jan-03 22:28N 35°38' E 139°46'0 0.0
2018-Jan-03 21:58N 35°38' E 139°46'0 0.0
2018-Jan-03 21:16N 35°38' E 139°46'0 0.0
2018-Jan-03 20:58N 35°38' E 139°46'0 0.0
2018-Jan-03 20:28N 35°38' E 139°46'0 0.0
2018-Jan-03 19:49N 35°38' E 139°46'0 0.0
2018-Jan-03 19:22N 35°38' E 139°46'0 0.0
2018-Jan-03 16:04N 35°38' E 139°46'0 0.0
2018-Jan-03 15:04N 35°38' E 139°46'0 0.0
2018-Jan-03 13:37N 35°38' E 139°46'0 0.0
2018-Jan-03 13:22N 35°38' E 139°46'0 0.0
2018-Jan-03 12:58N 35°38' E 139°46'0 0.0
2018-Jan-03 09:28N 35°38' E 139°46'0 0.0
2018-Jan-03 08:58N 35°38' E 139°46'0 0.0
2018-Jan-03 08:16N 35°38' E 139°46'0 0.0
2018-Jan-03 07:58N 35°38' E 139°46'0 0.0
2018-Jan-03 07:10N 35°38' E 139°46'0 0.0
2018-Jan-03 06:34N 35°38' E 139°46'0 0.0
2018-Jan-03 06:22N 35°38' E 139°46'0 0.0
2018-Jan-03 05:55N 35°38' E 139°46'0 0.0
2018-Jan-03 05:04N 35°38' E 139°46'0 0.0
2018-Jan-03 04:52N 35°38' E 139°46'0 0.0
2018-Jan-03 04:22N 35°38' E 139°46'0 0.0
2018-Jan-03 03:58N 35°38' E 139°46'0 0.0
2018-Jan-03 02:46N 35°38' E 139°46'0 0.0
2018-Jan-03 02:28N 35°38' E 139°46'0 0.0
2018-Jan-03 01:55N 35°38' E 139°46'0 0.0
2018-Jan-03 01:28N 35°38' E 139°46'0 0.0
2018-Jan-02 17:25N 35°38' E 139°46'0 0.0
2018-Jan-02 16:07N 35°38' E 139°46'0 0.0
2018-Jan-02 15:55N 35°38' E 139°46'0 0.0
2018-Jan-02 15:07N 35°38' E 139°46'  
Track history (hours):
 
Tides and Currents Weather Stations Pressure Air Temp Water Temp Dewpoint Dewpoint Depression Visibility Wind Speed Wind Dir Waves Ship Positions

Shin-oh Maru

Last reported at 2018-Jan-12 15:00 UTC. Time now 2018-Jan-18 19:48 UTC.
Position N 35°23' E 139°42'.

Length 161 m; draft 6.7 m.

Type: Cargo ship. MMSI: 431100859.

Date/timePositionNaut miles runAvg speedWind from/ knotsBaromVisibWave heightAir tempDewpointWater temp
2018-Jan-12 15:00N 35°23' E 139°42'918.7
2018-Jan-12 14:30N 35°29' E 139°50'715.0
2018-Jan-12 14:01N 35°36' E 139°47'2 3.0
2018-Jan-12 13:27N 35°38' E 139°46'0 0.0
2018-Jan-12 12:54N 35°38' E 139°46'0 0.0
2018-Jan-12 11:42N 35°38' E 139°46'0 0.0
2018-Jan-12 11:27N 35°38' E 139°46'0 0.0
2018-Jan-12 10:51N 35°38' E 139°46'0 0.0
2018-Jan-12 10:12N 35°38' E 139°46'0 0.0
2018-Jan-12 09:51N 35°38' E 139°46'0 0.0
2018-Jan-12 09:21N 35°38' E 139°46'0 0.0
2018-Jan-12 09:00N 35°38' E 139°46'3 6.3
2018-Jan-12 08:30N 35°35' E 139°48'612.7
2018-Jan-12 08:01N 35°30' E 139°53'917.2
2018-Jan-12 07:30N 35°23' E 139°46'612.2
2018-Jan-12 07:01N 35°17' E 139°45'713.6
2018-Jan-12 06:30N 35°11' E 139°47'1019.1
2018-Jan-12 06:00N 35°01' E 139°44'815.6
2018-Jan-12 05:30N 34°54' E 139°46'1416.1
2018-Jan-12 04:38N 34°55' E 140°03'41711.9
2018-Jan-10 17:31N 41°45' E 141°44'40718.0
2018-Jan-09 18:53N 35°03' E 140°22'820.0
2018-Jan-09 18:28N 34°59' E 140°13'919.2
2018-Jan-09 18:00N 34°54' E 140°04'1018.7
2018-Jan-09 17:30N 34°51' E 139°53'918.1
2018-Jan-09 17:00N 34°56' E 139°44'817.0
2018-Jan-09 16:30N 35°04' E 139°43'918.1
2018-Jan-09 16:00N 35°13' E 139°46'612.6
2018-Jan-09 15:30N 35°19' E 139°44'714.9
2018-Jan-09 15:00N 35°26' E 139°46'816.2
2018-Jan-09 14:31N 35°33' E 139°51'612.6
2018-Jan-09 14:01N 35°38' E 139°46'0 0.1
2018-Jan-09 13:28N 35°38' E 139°46'0 0.0
2018-Jan-09 12:58N 35°38' E 139°46'0 0.0
2018-Jan-09 11:04N 35°38' E 139°46'0 0.0
2018-Jan-09 10:52N 35°38' E 139°46'0 0.0
2018-Jan-09 10:22N 35°38' E 139°46'0 0.0
2018-Jan-09 08:58N 35°38' E 139°46'0 0.0
2018-Jan-09 04:46N 35°38' E 139°46'0 0.0
2018-Jan-09 04:28N 35°38' E 139°46'0 0.0
2018-Jan-09 03:58N 35°38' E 139°46'0 0.0
2018-Jan-09 03:10N 35°38' E 139°46'0 0.0
2018-Jan-09 03:00N 35°38' E 139°46'4 8.7
2018-Jan-09 02:30N 35°34' E 139°49'5 9.2
2018-Jan-09 02:00N 35°33' E 139°54'0 0.3
2018-Jan-09 01:25N 35°33' E 139°54'0 0.0
2018-Jan-09 00:58N 35°33' E 139°54'0 0.2
2018-Jan-09 00:22N 35°33' E 139°54'0 0.2
2018-Jan-08 23:46N 35°33' E 139°54'0 0.0
2018-Jan-08 23:28N 35°33' E 139°54'0 0.1
2018-Jan-08 22:52N 35°33' E 139°54'0 0.0
2018-Jan-08 22:28N 35°33' E 139°54'0 0.0
2018-Jan-08 21:58N 35°33' E 139°54'0 0.0
2018-Jan-08 21:28N 35°33' E 139°54'0 0.1
2018-Jan-08 20:55N 35°33' E 139°54'0 0.0
2018-Jan-08 20:25N 35°33' E 139°54'0 0.0
2018-Jan-08 19:55N 35°33' E 139°54'0 0.0
2018-Jan-08 19:25N 35°33' E 139°54'0 0.0
2018-Jan-08 18:55N 35°33' E 139°54'0 0.0
2018-Jan-08 18:28N 35°33' E 139°54'0 0.0
2018-Jan-08 17:49N 35°33' E 139°54'0 0.0
2018-Jan-08 17:25N 35°33' E 139°54'0 0.0
2018-Jan-08 16:55N 35°33' E 139°54'0 0.0
2018-Jan-08 16:25N 35°33' E 139°54'0 0.1
2018-Jan-08 15:58N 35°33' E 139°54'0 0.0
2018-Jan-08 15:22N 35°33' E 139°54'0 0.1
2018-Jan-08 14:58N 35°33' E 139°54'0 0.0
2018-Jan-08 14:25N 35°33' E 139°54'0 0.1
2018-Jan-08 13:58N 35°33' E 139°54'0 0.0
2018-Jan-08 13:13N 35°33' E 139°54'0 0.0
2018-Jan-08 12:55N 35°33' E 139°54'0 0.0
2018-Jan-08 12:25N 35°33' E 139°54'0 0.1
2018-Jan-08 11:55N 35°33' E 139°54'0 0.0
2018-Jan-08 11:25N 35°33' E 139°54'0 0.1
2018-Jan-08 10:52N 35°33' E 139°54'0 0.0
2018-Jan-08 10:25N 35°33' E 139°54'0 0.0
2018-Jan-08 09:55N 35°33' E 139°54'0 0.0
2018-Jan-08 09:25N 35°33' E 139°54'0 0.0
2018-Jan-08 08:49N 35°33' E 139°54'0 0.0
2018-Jan-08 08:25N 35°33' E 139°54'0 0.0
2018-Jan-08 07:58N 35°33' E 139°54'0 0.0
2018-Jan-08 07:19N 35°33' E 139°54'0 0.0
2018-Jan-08 06:55N 35°33' E 139°54'0 0.0
2018-Jan-08 06:25N 35°33' E 139°54'0 0.0
2018-Jan-08 05:58N 35°33' E 139°54'0 0.1
2018-Jan-08 05:28N 35°33' E 139°54'0 0.1
2018-Jan-08 04:55N 35°33' E 139°54'0 0.0
2018-Jan-08 04:01N 35°33' E 139°54'0 0.0
2018-Jan-08 03:58N 35°33' E 139°54'0 0.0
2018-Jan-08 03:28N 35°33' E 139°54'0 0.0
2018-Jan-08 02:55N 35°33' E 139°54'0 0.0
2018-Jan-08 02:28N 35°33' E 139°54'0 0.0
2018-Jan-08 01:55N 35°33' E 139°54'0 0.1
2018-Jan-08 01:25N 35°33' E 139°54'0 0.0
2018-Jan-08 00:55N 35°33' E 139°54'0 0.1
2018-Jan-08 00:25N 35°33' E 139°54'0 0.0
2018-Jan-07 23:46N 35°33' E 139°54'0 0.0
2018-Jan-07 23:22N 35°33' E 139°54'0 0.0
2018-Jan-07 22:58N 35°33' E 139°54'0 0.1
2018-Jan-07 22:25N 35°33' E 139°54'0 0.0
2018-Jan-07 21:58N 35°33' E 139°54'0 0.1
2018-Jan-07 21:22N 35°33' E 139°54'0 0.0
2018-Jan-07 20:58N 35°33' E 139°54'0 0.0
2018-Jan-07 20:28N 35°33' E 139°54'0 0.0
2018-Jan-07 19:55N 35°33' E 139°54'0 0.1
2018-Jan-07 19:22N 35°33' E 139°54'0 0.0
2018-Jan-07 18:43N 35°33' E 139°54'0 0.2
2018-Jan-07 18:28N 35°33' E 139°54'0 0.1
2018-Jan-07 17:55N 35°33' E 139°54'0 0.1
2018-Jan-07 17:28N 35°33' E 139°54'0 0.0
2018-Jan-07 16:58N 35°33' E 139°54'0 0.0
2018-Jan-07 16:19N 35°33' E 139°54'0 0.0
2018-Jan-07 15:58N 35°33' E 139°54'0 0.0
2018-Jan-07 15:25N 35°33' E 139°54'0 0.0
2018-Jan-07 14:55N 35°33' E 139°54'0 0.2
2018-Jan-07 14:28N 35°33' E 139°54'0 0.0
2018-Jan-07 13:46N 35°33' E 139°54'0 0.0
2018-Jan-07 13:19N 35°33' E 139°54'0 0.0
2018-Jan-07 12:58N 35°33' E 139°54'0 0.0
2018-Jan-07 12:25N 35°33' E 139°54'0 0.0
2018-Jan-07 11:55N 35°33' E 139°54'0 0.0
2018-Jan-07 11:25N 35°33' E 139°54'0 0.0
2018-Jan-07 10:55N 35°33' E 139°54'0 0.0
2018-Jan-07 10:28N 35°33' E 139°54'0 0.0
2018-Jan-07 09:58N 35°33' E 139°54'0 0.0
2018-Jan-07 09:25N 35°33' E 139°54'0 0.0
2018-Jan-07 08:59N 35°33' E 139°54'0 0.1
2018-Jan-07 08:30N 35°33' E 139°54'3 5.7
2018-Jan-07 08:00N 35°31' E 139°53'917.6
2018-Jan-07 07:30N 35°24' E 139°46'612.7
2018-Jan-07 07:00N 35°18' E 139°45'713.4
2018-Jan-07 06:30N 35°11' E 139°47'1019.4
2018-Jan-07 06:01N 35°02' E 139°44'917.1
2018-Jan-07 05:30N 34°53' E 139°46'1116.5
2018-Jan-07 04:50N 34°53' E 139°60'717.9
2018-Jan-07 04:27N 34°57' E 140°07'  
2018-Jan-04 15:40N 35°03' E 140°23'817.0
2018-Jan-04 15:10N 34°59' E 140°14'317.1
2018-Jan-04 14:59N 34°57' E 140°10'1016.9
2018-Jan-04 14:24N 34°53' E 139°60'716.2
2018-Jan-04 13:57N 34°51' E 139°51'817.5
2018-Jan-04 13:30N 34°56' E 139°43'917.5
2018-Jan-04 13:00N 35°04' E 139°43'918.2
2018-Jan-04 12:30N 35°13' E 139°46'612.8
2018-Jan-04 12:00N 35°19' E 139°43'815.3
2018-Jan-04 11:30N 35°26' E 139°46'714.9
2018-Jan-04 11:00N 35°31' E 139°53'0 0.5
2018-Jan-04 10:30N 35°31' E 139°53'0 0.0
2018-Jan-04 10:00N 35°31' E 139°53'0 0.0
2018-Jan-04 09:30N 35°31' E 139°53'0 0.0
2018-Jan-04 08:57N 35°31' E 139°53'0 0.1
2018-Jan-04 08:30N 35°31' E 139°53'0 0.1
2018-Jan-04 07:57N 35°31' E 139°53'0 0.1
2018-Jan-04 07:27N 35°31' E 139°53'0 0.1
2018-Jan-04 07:00N 35°31' E 139°53'2 3.2
2018-Jan-04 06:30N 35°32' E 139°51'613.0
2018-Jan-04 06:00N 35°37' E 139°46'1 0.1
2018-Jan-04 01:16N 35°38' E 139°46'0 0.0
2018-Jan-04 00:58N 35°38' E 139°46'0 0.0
2018-Jan-03 22:46N 35°38' E 139°46'0 0.0
2018-Jan-03 22:28N 35°38' E 139°46'0 0.0
2018-Jan-03 21:58N 35°38' E 139°46'0 0.0
2018-Jan-03 21:16N 35°38' E 139°46'0 0.0
2018-Jan-03 20:58N 35°38' E 139°46'0 0.0
2018-Jan-03 20:28N 35°38' E 139°46'0 0.0
2018-Jan-03 19:49N 35°38' E 139°46'0 0.0
2018-Jan-03 19:22N 35°38' E 139°46'0 0.0
2018-Jan-03 16:04N 35°38' E 139°46'0 0.0
2018-Jan-03 15:04N 35°38' E 139°46'0 0.0
2018-Jan-03 13:37N 35°38' E 139°46'0 0.0
2018-Jan-03 13:22N 35°38' E 139°46'0 0.0
2018-Jan-03 12:58N 35°38' E 139°46'0 0.0
2018-Jan-03 09:28N 35°38' E 139°46'0 0.0
2018-Jan-03 08:58N 35°38' E 139°46'0 0.0
2018-Jan-03 08:16N 35°38' E 139°46'0 0.0
2018-Jan-03 07:58N 35°38' E 139°46'0 0.0
2018-Jan-03 07:10N 35°38' E 139°46'0 0.0
2018-Jan-03 06:34N 35°38' E 139°46'0 0.0
2018-Jan-03 06:22N 35°38' E 139°46'0 0.0
2018-Jan-03 05:55N 35°38' E 139°46'0 0.0
2018-Jan-03 05:04N 35°38' E 139°46'0 0.0
2018-Jan-03 04:52N 35°38' E 139°46'0 0.0
2018-Jan-03 04:22N 35°38' E 139°46'0 0.0
2018-Jan-03 03:58N 35°38' E 139°46'0 0.0
2018-Jan-03 02:46N 35°38' E 139°46'0 0.0
2018-Jan-03 02:28N 35°38' E 139°46'0 0.0
2018-Jan-03 01:55N 35°38' E 139°46'0 0.0
2018-Jan-03 01:28N 35°38' E 139°46'0 0.0
2018-Jan-02 17:25N 35°38' E 139°46'0 0.0
2018-Jan-02 16:07N 35°38' E 139°46'0 0.0
2018-Jan-02 15:55N 35°38' E 139°46'0 0.0
2018-Jan-02 15:07N 35°38' E 139°46'  

Dump ship's entire track history